createdAt,value
2019-02-05T00:00:09.773Z,36.33
2019-02-05T00:02:38.080Z,33.73
2019-02-05T00:05:06.343Z,35.23
2019-02-05T00:07:34.637Z,36.00
2019-02-05T00:10:04.642Z,33.87
2019-02-05T00:12:32.925Z,33.77
2019-02-05T00:15:01.227Z,33.00
2019-02-05T00:17:29.484Z,34.10
2019-02-05T00:19:57.814Z,33.53
2019-02-05T00:22:26.288Z,33.50
2019-02-05T00:24:54.583Z,33.07
2019-02-05T00:27:22.920Z,34.23
2019-02-05T00:29:51.330Z,34.60
2019-02-05T00:32:19.626Z,32.67
2019-02-05T00:34:47.906Z,36.57
2019-02-05T00:37:16.249Z,36.10
2019-02-05T00:39:44.537Z,36.00
2019-02-05T00:42:12.830Z,35.87
2019-02-05T00:44:41.101Z,36.03
2019-02-05T00:47:09.371Z,36.43
2019-02-05T00:49:37.667Z,35.47
2019-02-05T00:52:05.925Z,35.43
2019-02-05T00:54:34.481Z,35.83
2019-02-05T00:57:02.762Z,38.13
2019-02-05T00:59:31.042Z,38.57
2019-02-05T01:01:59.324Z,38.87
2019-02-05T01:04:27.590Z,37.27
2019-02-05T01:06:55.849Z,38.97
2019-02-05T01:09:24.126Z,37.33
2019-02-05T01:11:52.391Z,37.83
2019-02-05T01:14:20.762Z,38.00
2019-02-05T01:16:49.075Z,40.20
2019-02-05T01:19:17.357Z,39.40
2019-02-05T01:21:45.718Z,39.03
2019-02-05T01:24:14.034Z,38.17
2019-02-05T01:26:42.509Z,37.00
2019-02-05T01:29:10.782Z,38.33
2019-02-05T01:31:39.083Z,36.27
2019-02-05T01:34:07.375Z,38.57
2019-02-05T01:36:35.720Z,37.07
2019-02-05T01:39:05.109Z,35.57
2019-02-05T01:41:33.868Z,36.70
2019-02-05T01:44:02.147Z,36.93
2019-02-05T01:46:30.439Z,37.23
2019-02-05T01:48:58.716Z,37.97
2019-02-05T01:51:27.048Z,36.67
2019-02-05T01:53:55.293Z,36.17
2019-02-05T01:56:23.554Z,36.00
2019-02-05T01:58:51.862Z,34.33
2019-02-05T02:01:20.240Z,36.03
2019-02-05T02:03:48.506Z,38.37
2019-02-05T02:06:16.789Z,38.10
2019-02-05T02:08:45.099Z,36.77
2019-02-05T02:11:13.424Z,37.37
2019-02-05T02:13:42.280Z,35.00
2019-02-05T02:16:10.568Z,35.77
2019-02-05T02:18:38.830Z,35.87
2019-02-05T02:21:07.127Z,34.67
2019-02-05T02:23:35.397Z,35.20
2019-02-05T02:26:03.680Z,35.40
2019-02-05T02:28:31.956Z,36.80
2019-02-05T02:31:00.636Z,38.13
2019-02-05T02:33:28.907Z,38.73
2019-02-05T02:35:57.174Z,37.63
2019-02-05T02:38:25.472Z,36.37
2019-02-05T02:40:53.731Z,37.63
2019-02-05T02:43:22.059Z,38.80
2019-02-05T02:45:50.372Z,39.80
2019-02-05T02:48:18.641Z,39.03
2019-02-05T02:50:46.948Z,37.47
2019-02-05T02:53:15.269Z,37.20
2019-02-05T02:55:43.551Z,40.07
2019-02-05T02:58:13.638Z,36.67
2019-02-05T03:00:41.815Z,38.57
2019-02-05T03:03:10.265Z,39.60
2019-02-05T03:05:38.590Z,40.83
2019-02-05T03:08:06.867Z,39.80
2019-02-05T03:10:35.241Z,39.23
2019-02-05T03:13:03.539Z,42.83
2019-02-05T03:15:41.065Z,39.30
2019-02-05T03:18:10.963Z,41.07
2019-02-05T03:20:39.376Z,41.80
2019-02-05T03:23:07.715Z,40.63
2019-02-05T03:25:35.995Z,39.00
2019-02-05T03:28:04.296Z,43.17
2019-02-05T03:30:32.602Z,42.27
2019-02-05T03:33:00.998Z,42.03
2019-02-05T03:35:31.021Z,43.60
2019-02-05T03:37:59.685Z,43.27
2019-02-05T03:40:31.277Z,45.37
2019-02-05T03:42:59.638Z,44.43
2019-02-05T03:45:27.982Z,43.53
2019-02-05T03:47:59.701Z,43.20
2019-02-05T03:50:28.051Z,43.97
2019-02-05T03:53:14.506Z,43.40
2019-02-05T03:55:50.865Z,44.73
2019-02-05T03:58:45.051Z,43.83
2019-02-05T04:01:22.186Z,43.73
2019-02-05T04:04:13.224Z,44.53
2019-02-05T04:07:14.817Z,43.63
2019-02-05T04:10:02.747Z,44.30
2019-02-05T04:12:49.206Z,42.07
2019-02-05T04:15:32.787Z,46.10
2019-02-05T04:18:20.553Z,44.33
2019-02-05T04:20:58.002Z,45.93
2019-02-05T04:23:50.835Z,43.30
2019-02-05T04:26:54.331Z,45.93
2019-02-05T04:29:53.173Z,44.70
2019-02-05T04:32:36.800Z,46.27
2019-02-05T04:35:29.474Z,44.47
2019-02-05T04:38:23.280Z,44.50
2019-02-05T04:41:00.791Z,42.40
2019-02-05T04:43:52.977Z,43.97
2019-02-05T04:46:45.534Z,41.83
2019-02-05T04:49:33.448Z,45.60
2019-02-05T04:52:10.845Z,44.27
2019-02-05T04:55:03.426Z,45.60
2019-02-05T04:57:41.020Z,46.10
2019-02-05T05:00:15.307Z,44.10
2019-02-05T05:02:52.726Z,47.73
2019-02-05T05:05:45.455Z,46.27
2019-02-05T05:08:36.251Z,46.27
2019-02-05T05:11:04.566Z,46.60
2019-02-05T05:13:33.203Z,47.23
2019-02-05T05:16:01.478Z,47.93
2019-02-05T05:18:29.776Z,47.43
2019-02-05T05:20:58.170Z,46.63
2019-02-05T05:23:26.543Z,48.00
2019-02-05T05:25:54.830Z,47.13
2019-02-05T05:28:23.096Z,46.53
2019-02-05T05:30:51.737Z,46.37
2019-02-05T05:33:20.093Z,46.53
2019-02-05T05:35:48.354Z,45.90
2019-02-05T05:38:18.980Z,46.23
2019-02-05T05:40:47.311Z,49.00
2019-02-05T05:43:15.606Z,46.53
2019-02-05T05:45:43.886Z,47.00
2019-02-05T05:48:12.755Z,45.20
2019-02-05T05:50:41.029Z,44.30
2019-02-05T05:53:09.322Z,45.90
2019-02-05T05:55:37.599Z,48.07
2019-02-05T05:58:05.898Z,48.53
2019-02-05T06:00:34.235Z,50.77
2019-02-05T06:03:02.566Z,48.00
2019-02-05T06:05:31.220Z,45.23
2019-02-05T06:07:59.526Z,45.93
2019-02-05T06:10:27.778Z,48.20
2019-02-05T06:12:56.068Z,46.43
2019-02-05T06:15:24.427Z,46.07
2019-02-05T06:17:52.706Z,47.17
2019-02-05T06:20:21.032Z,45.93
2019-02-05T06:22:49.788Z,46.03
2019-02-05T06:25:18.156Z,47.33
2019-02-05T06:27:46.541Z,47.20
2019-02-05T06:30:16.689Z,47.47
2019-02-05T06:32:44.990Z,50.73
2019-02-05T06:35:13.326Z,50.10
2019-02-05T06:37:41.791Z,50.00
2019-02-05T06:40:16.702Z,48.97
2019-02-05T06:42:45.005Z,49.17
2019-02-05T06:45:14.858Z,51.17
2019-02-05T06:47:43.132Z,48.43
2019-02-05T06:50:12.861Z,48.57
2019-02-05T06:52:41.140Z,51.07
2019-02-05T06:55:12.069Z,51.87
2019-02-05T06:57:40.359Z,50.73
2019-02-05T07:00:12.046Z,54.20
2019-02-05T07:02:40.370Z,54.00
2019-02-05T07:05:11.102Z,54.07
2019-02-05T07:07:39.372Z,51.30
2019-02-05T07:10:13.854Z,51.70
2019-02-05T07:12:42.125Z,53.33
2019-02-05T07:15:10.884Z,51.40
2019-02-05T07:17:49.220Z,57.23
2019-02-05T07:20:12.155Z,56.53
2019-02-05T07:22:40.449Z,54.57
2019-02-05T07:25:12.119Z,55.20
2019-02-05T07:27:40.446Z,56.70
2019-02-05T07:30:11.992Z,55.93
2019-02-05T07:32:40.304Z,56.20
2019-02-05T07:35:08.605Z,55.63
2019-02-05T07:37:36.906Z,56.23
2019-02-05T07:40:13.706Z,53.90
2019-02-05T07:42:42.158Z,56.83
2019-02-05T07:45:13.179Z,54.67
2019-02-05T07:47:41.489Z,55.57
2019-02-05T07:50:18.183Z,54.13
2019-02-05T07:52:46.547Z,53.40
2019-02-05T07:55:14.822Z,53.13
2019-02-05T07:57:43.455Z,53.70
2019-02-05T08:00:18.567Z,52.57
2019-02-05T08:02:46.934Z,56.53
2019-02-05T08:05:20.681Z,55.83
2019-02-05T08:07:49.555Z,44.97
2019-02-05T08:10:20.067Z,47.60
2019-02-05T08:12:48.506Z,48.37
2019-02-05T08:15:22.559Z,48.53
2019-02-05T08:17:50.891Z,49.47
2019-02-05T08:20:19.186Z,47.13
2019-02-05T08:22:47.452Z,47.33
2019-02-05T08:25:15.812Z,47.23
2019-02-05T08:27:44.086Z,45.80
2019-02-05T08:30:15.598Z,47.23
2019-02-05T08:32:43.866Z,44.80
2019-02-05T08:35:14.890Z,43.63
2019-02-05T08:37:43.152Z,46.53
2019-02-05T08:40:14.285Z,46.97
2019-02-05T08:42:42.568Z,45.70
2019-02-05T08:45:14.331Z,41.90
2019-02-05T08:47:43.105Z,40.27
2019-02-05T08:50:14.355Z,37.67
2019-02-05T08:52:42.619Z,37.50
2019-02-05T08:55:16.128Z,33.20
2019-02-05T08:57:44.397Z,33.73
2019-02-05T09:00:18.355Z,37.30
2019-02-05T09:02:46.924Z,36.00
2019-02-05T09:05:16.244Z,38.60
2019-02-05T09:07:44.496Z,38.70
2019-02-05T09:10:18.827Z,37.40
2019-02-05T09:12:47.127Z,36.67
2019-02-05T09:15:15.396Z,37.63
2019-02-05T09:17:43.687Z,36.97
2019-02-05T09:20:20.510Z,34.00
2019-02-05T09:22:48.766Z,31.60
2019-02-05T09:25:17.967Z,34.20
2019-02-05T09:27:46.233Z,36.37
2019-02-05T09:30:20.705Z,37.07
2019-02-05T09:32:50.395Z,35.23
2019-02-05T09:35:18.662Z,38.73
2019-02-05T09:37:46.923Z,36.47
2019-02-05T09:40:23.756Z,37.67
2019-02-05T09:42:52.023Z,35.50
2019-02-05T09:45:20.353Z,38.67
2019-02-05T09:47:48.639Z,36.00
2019-02-05T09:50:17.917Z,35.40
2019-02-05T09:52:46.181Z,34.67
2019-02-05T09:55:18.998Z,35.03
2019-02-05T09:57:47.263Z,33.33
2019-02-05T10:00:35.153Z,35.63
2019-02-05T10:03:03.491Z,34.60
2019-02-05T10:05:33.546Z,33.93
2019-02-05T10:08:01.856Z,35.17
2019-02-05T10:10:30.274Z,33.87
2019-02-05T10:12:58.546Z,34.77
2019-02-05T10:15:31.918Z,32.83
2019-02-05T10:18:01.011Z,34.60
2019-02-05T10:20:29.331Z,36.23
2019-02-05T10:23:00.283Z,37.60
2019-02-05T10:25:28.561Z,40.40
2019-02-05T10:27:56.897Z,39.03
2019-02-05T10:30:28.064Z,38.40
2019-02-05T10:32:56.597Z,36.53
2019-02-05T10:35:24.944Z,37.30
2019-02-05T10:37:53.330Z,38.10
2019-02-05T10:40:22.896Z,36.33
2019-02-05T10:42:51.178Z,35.67
2019-02-05T10:45:21.246Z,37.50
2019-02-05T10:47:49.546Z,35.80
2019-02-05T10:50:19.219Z,37.60
2019-02-05T10:52:47.516Z,37.43
2019-02-05T10:55:18.278Z,36.40
2019-02-05T10:57:47.797Z,39.03
2019-02-05T11:00:32.602Z,39.27
2019-02-05T11:03:06.441Z,37.03
2019-02-05T11:05:34.763Z,36.73
2019-02-05T11:08:03.196Z,38.90
2019-02-05T11:10:31.489Z,36.43
2019-02-05T11:12:59.759Z,36.90
2019-02-05T11:15:32.886Z,35.23
2019-02-05T11:18:02.446Z,35.97
2019-02-05T11:20:30.893Z,38.63
2019-02-05T11:22:59.231Z,37.67
2019-02-05T11:25:27.477Z,36.40
2019-02-05T11:27:55.796Z,37.27
2019-02-05T11:30:29.891Z,40.00
2019-02-05T11:32:58.275Z,37.67
2019-02-05T11:35:26.571Z,37.60
2019-02-05T11:37:54.843Z,39.70
2019-02-05T11:40:26.115Z,37.90
2019-02-05T11:42:54.389Z,38.00
2019-02-05T11:45:22.661Z,38.43
2019-02-05T11:47:50.998Z,37.87
2019-02-05T11:50:19.380Z,40.43
2019-02-05T11:52:50.929Z,38.27
2019-02-05T11:55:27.853Z,37.87
2019-02-05T11:57:57.835Z,35.73
2019-02-05T12:00:33.341Z,37.60
2019-02-05T12:03:01.652Z,38.80
2019-02-05T12:05:31.548Z,38.47
2019-02-05T12:08:00.320Z,36.20
2019-02-05T12:10:28.579Z,38.13
2019-02-05T12:12:56.975Z,38.30
2019-02-05T12:15:25.241Z,37.43
2019-02-05T12:17:53.547Z,36.50
2019-02-05T12:20:24.909Z,39.17
2019-02-05T12:22:53.493Z,37.03
2019-02-05T12:25:25.264Z,35.40
2019-02-05T12:27:53.600Z,38.30
2019-02-05T12:30:45.204Z,40.37
2019-02-05T12:33:11.544Z,39.00
2019-02-05T12:35:40.063Z,41.17
2019-02-05T12:38:11.326Z,39.10
2019-02-05T12:40:39.706Z,39.97
2019-02-05T12:43:08.229Z,38.73
2019-02-05T12:45:38.063Z,39.60
2019-02-05T12:48:06.786Z,39.33
2019-02-05T12:50:37.387Z,41.30
2019-02-05T12:53:06.129Z,39.07
2019-02-05T12:55:34.487Z,38.47
2019-02-05T12:58:03.018Z,37.03
2019-02-05T13:00:37.188Z,36.93
2019-02-05T13:03:06.079Z,37.03
2019-02-05T13:05:34.422Z,35.20
2019-02-05T13:08:05.411Z,37.23
2019-02-05T13:10:41.079Z,35.53
2019-02-05T13:13:11.165Z,35.37
2019-02-05T13:15:39.507Z,33.60
2019-02-05T13:18:07.899Z,33.60
2019-02-05T13:20:36.686Z,32.57
2019-02-05T13:23:05.903Z,32.57
2019-02-05T13:25:34.664Z,34.53
2019-02-05T13:28:03.107Z,35.13
2019-02-05T13:30:38.150Z,33.73
2019-02-05T13:33:09.000Z,31.53
2019-02-05T13:35:37.396Z,35.70
2019-02-05T13:38:06.528Z,34.57
2019-02-05T13:40:34.856Z,35.90
2019-02-05T13:43:03.236Z,34.33
2019-02-05T13:45:33.390Z,35.57
2019-02-05T13:48:02.098Z,36.43
2019-02-05T13:50:33.417Z,37.03
2019-02-05T13:53:04.287Z,36.33
2019-02-05T13:55:37.727Z,35.70
2019-02-05T13:58:06.151Z,39.33
2019-02-05T14:00:37.805Z,38.90
2019-02-05T14:03:07.800Z,38.33
2019-02-05T14:05:36.225Z,35.90
2019-02-05T14:08:04.582Z,36.23
2019-02-05T14:10:35.077Z,35.17
2019-02-05T14:13:03.432Z,35.40
2019-02-05T14:15:34.285Z,37.47
2019-02-05T14:18:03.033Z,38.13
2019-02-05T14:20:31.313Z,36.77
2019-02-05T14:22:59.704Z,39.40
2019-02-05T14:25:27.935Z,36.37
2019-02-05T14:27:56.334Z,36.83
2019-02-05T14:30:36.308Z,38.33
2019-02-05T14:33:04.936Z,38.60
2019-02-05T14:35:33.208Z,37.17
2019-02-05T14:38:01.488Z,35.77
2019-02-05T14:40:31.526Z,38.20
2019-02-05T14:42:59.795Z,37.57
2019-02-05T14:45:28.146Z,37.40
2019-02-05T14:47:56.686Z,39.70
2019-02-05T14:50:27.905Z,39.80
2019-02-05T14:52:56.391Z,38.87
2019-02-05T14:55:24.631Z,38.13
2019-02-05T14:57:52.978Z,40.37
2019-02-05T15:00:30.368Z,38.93
2019-02-05T15:03:01.907Z,36.50
2019-02-05T15:05:30.367Z,37.43
2019-02-05T15:07:58.886Z,37.00
2019-02-05T15:10:27.324Z,40.57
2019-02-05T15:12:55.615Z,38.33
2019-02-05T15:15:26.173Z,39.37
2019-02-05T15:17:54.600Z,37.50
2019-02-05T15:20:31.516Z,38.90
2019-02-05T15:22:59.956Z,38.60
2019-02-05T15:25:28.252Z,38.00
2019-02-05T15:27:56.648Z,37.73
2019-02-05T15:30:28.197Z,36.27
2019-02-05T15:33:13.547Z,36.50
2019-02-05T15:35:43.445Z,38.80
2019-02-05T15:38:14.159Z,40.40
2019-02-05T15:40:42.536Z,41.43
2019-02-05T15:43:11.026Z,40.03
2019-02-05T15:45:39.488Z,39.53
2019-02-05T15:48:08.571Z,39.80
2019-02-05T15:50:37.054Z,38.93
2019-02-05T15:53:05.310Z,38.10
2019-02-05T15:55:33.587Z,39.27
2019-02-05T15:58:02.120Z,38.20
2019-02-05T16:00:30.384Z,39.33
2019-02-05T16:02:58.735Z,38.13
2019-02-05T16:05:27.161Z,39.70
2019-02-05T16:07:55.567Z,39.20
2019-02-05T16:10:24.767Z,37.23
2019-02-05T16:12:53.056Z,39.37
2019-02-05T16:15:21.312Z,39.63
2019-02-05T16:17:50.102Z,41.17
2019-02-05T16:20:19.604Z,39.73
2019-02-05T16:22:49.040Z,38.93
2019-02-05T16:25:17.532Z,37.40
2019-02-05T16:27:45.786Z,38.07
2019-02-05T16:30:32.011Z,37.50
2019-02-05T16:33:00.276Z,37.03
2019-02-05T16:35:28.663Z,39.00
2019-02-05T16:37:56.999Z,37.33
2019-02-05T16:40:27.984Z,38.40
2019-02-05T16:43:03.700Z,37.40
2019-02-05T16:45:32.360Z,37.90
2019-02-05T16:48:00.629Z,38.40
2019-02-05T16:50:40.836Z,37.70
2019-02-05T16:53:09.773Z,40.20
2019-02-05T16:55:38.029Z,37.00
2019-02-05T16:58:06.922Z,35.97
2019-02-05T17:00:36.243Z,37.57
2019-02-05T17:03:04.892Z,37.47
2019-02-05T17:05:35.403Z,38.33
2019-02-05T17:08:03.682Z,38.20
2019-02-05T17:10:31.940Z,38.27
2019-02-05T17:13:00.213Z,39.10
2019-02-05T17:15:28.473Z,37.67
2019-02-05T17:17:56.731Z,37.50
2019-02-05T17:20:27.236Z,38.17
2019-02-05T17:22:55.493Z,37.80
2019-02-05T17:25:31.858Z,40.83
2019-02-05T17:28:01.810Z,40.20
2019-02-05T17:30:32.310Z,41.73
2019-02-05T17:33:00.578Z,38.17
2019-02-05T17:35:28.863Z,42.30
2019-02-05T17:37:57.123Z,40.20
2019-02-05T17:40:26.530Z,41.97
2019-02-05T17:42:55.532Z,43.67
2019-02-05T17:45:29.470Z,40.87
2019-02-05T17:47:58.032Z,41.20
2019-02-05T17:50:26.314Z,42.70
2019-02-05T17:52:54.581Z,42.50
2019-02-05T17:55:22.835Z,43.07
2019-02-05T17:57:51.098Z,43.90
2019-02-05T18:00:25.365Z,45.37
2019-02-05T18:02:53.637Z,44.20
2019-02-05T18:05:21.909Z,43.97
2019-02-05T18:07:50.178Z,44.93
2019-02-05T18:10:27.248Z,43.57
2019-02-05T18:12:55.522Z,43.27
2019-02-05T18:15:29.400Z,42.27
2019-02-05T18:17:57.657Z,43.90
2019-02-05T18:20:25.930Z,41.93
2019-02-05T18:22:54.541Z,43.37
2019-02-05T18:25:22.817Z,44.37
2019-02-05T18:27:51.116Z,43.70
2019-02-05T18:30:27.371Z,46.60
2019-02-05T18:33:03.320Z,47.33
2019-02-05T18:35:25.666Z,50.13
2019-02-05T18:37:54.030Z,45.63
2019-02-05T18:40:26.914Z,54.83
2019-02-05T18:42:55.201Z,47.13
2019-02-05T18:45:23.469Z,45.43
2019-02-05T18:47:51.802Z,43.50
2019-02-05T18:50:24.715Z,44.40
2019-02-05T18:52:53.010Z,43.93
2019-02-05T18:55:22.905Z,45.20
2019-02-05T18:57:51.189Z,43.10
2019-02-05T19:00:22.721Z,47.23
2019-02-05T19:02:51.008Z,44.03
2019-02-05T19:05:26.149Z,46.27
2019-02-05T19:07:54.441Z,42.30
2019-02-05T19:10:27.939Z,45.23
2019-02-05T19:12:56.207Z,43.20
2019-02-05T19:15:32.500Z,42.27
2019-02-05T19:18:01.144Z,43.40
2019-02-05T19:20:31.079Z,42.43
2019-02-05T19:22:59.583Z,42.47
2019-02-05T19:25:44.606Z,42.30
2019-02-05T19:28:26.036Z,42.20
2019-02-05T19:30:55.967Z,42.27
2019-02-05T19:33:27.137Z,42.40
2019-02-05T19:35:54.226Z,41.63
2019-02-05T19:38:22.497Z,42.67
2019-02-05T19:40:57.650Z,41.67
2019-02-05T19:43:23.182Z,43.33
2019-02-05T19:46:07.333Z,44.27
2019-02-05T19:48:40.150Z,45.60
2019-02-05T19:51:08.601Z,46.17
2019-02-05T19:53:36.908Z,46.20
2019-02-05T19:56:05.620Z,46.93
2019-02-05T19:58:34.478Z,46.73
2019-02-05T20:01:02.892Z,44.37
2019-02-05T20:03:38.340Z,44.40
2019-02-05T20:06:01.375Z,46.60
2019-02-05T20:08:29.796Z,45.30
2019-02-05T20:10:58.236Z,45.67
2019-02-05T20:13:26.656Z,45.43
2019-02-05T20:15:55.520Z,46.10
2019-02-05T20:18:23.900Z,46.10
2019-02-05T20:20:52.182Z,45.87
2019-02-05T20:23:20.572Z,42.73
2019-02-05T20:25:49.862Z,43.30
2019-02-05T20:28:18.239Z,42.30
2019-02-05T20:30:46.587Z,46.40
2019-02-05T20:33:15.025Z,46.03
2019-02-05T20:35:43.374Z,43.93
2019-02-05T20:38:13.294Z,45.50
2019-02-05T20:40:41.679Z,45.37
2019-02-05T20:43:09.941Z,43.53
2019-02-05T20:45:38.237Z,44.17
2019-02-05T20:48:06.857Z,44.97
2019-02-05T20:50:35.740Z,44.17
2019-02-05T20:53:13.634Z,44.13
2019-02-05T20:55:34.086Z,42.93
2019-02-05T20:58:02.439Z,43.03
2019-02-05T21:00:34.144Z,44.57
2019-02-05T21:03:02.454Z,43.00
2019-02-05T21:05:35.066Z,42.00
2019-02-05T21:08:03.338Z,42.27
2019-02-05T21:10:35.552Z,45.03
2019-02-05T21:13:03.856Z,42.97
2019-02-05T21:15:32.213Z,44.40
2019-02-05T21:18:00.595Z,44.33
2019-02-05T21:20:34.302Z,43.07
2019-02-05T21:23:02.801Z,42.77
2019-02-05T21:25:31.064Z,44.70
2019-02-05T21:27:59.398Z,42.20
2019-02-05T21:30:27.910Z,46.43
2019-02-05T21:32:56.256Z,43.77
2019-02-05T21:35:24.612Z,45.80
2019-02-05T21:37:52.880Z,44.77
2019-02-05T21:40:22.595Z,47.40
2019-02-05T21:42:50.877Z,43.43
2019-02-05T21:45:29.503Z,44.90
2019-02-05T21:47:57.853Z,45.03
2019-02-05T21:50:26.263Z,42.57
2019-02-05T21:52:54.539Z,43.63
2019-02-05T21:55:24.072Z,43.73
2019-02-05T21:57:52.432Z,42.20
2019-02-05T22:00:23.417Z,42.83
2019-02-05T22:02:51.825Z,45.73
2019-02-05T22:05:20.178Z,47.60
2019-02-05T22:07:48.438Z,47.20
2019-02-05T22:10:16.743Z,47.63
2019-02-05T22:12:45.027Z,45.60
2019-02-05T22:15:15.934Z,46.93
2019-02-05T22:17:44.205Z,47.30
2019-02-05T22:20:15.292Z,47.40
2019-02-05T22:22:43.630Z,47.00
2019-02-05T22:25:17.709Z,48.30
2019-02-05T22:27:46.002Z,46.50
2019-02-05T22:30:22.484Z,46.67
2019-02-05T22:32:50.795Z,46.50
2019-02-05T22:35:19.901Z,46.23
2019-02-05T22:37:48.656Z,49.40
2019-02-05T22:40:19.096Z,47.47
2019-02-05T22:42:49.066Z,47.50
2019-02-05T22:45:19.928Z,47.57
2019-02-05T22:47:48.206Z,48.90
2019-02-05T22:50:22.975Z,47.47
2019-02-05T22:52:51.354Z,47.47
2019-02-05T22:55:19.725Z,47.07
2019-02-05T22:57:48.025Z,50.03
2019-02-05T23:00:45.595Z,47.23
2019-02-05T23:03:13.875Z,47.70
2019-02-05T23:06:14.708Z,48.30
2019-02-05T23:08:43.001Z,47.23
2019-02-05T23:11:26.561Z,47.40
2019-02-05T23:13:54.853Z,48.87
2019-02-05T23:16:23.150Z,48.17
2019-02-05T23:18:51.434Z,49.83
2019-02-05T23:21:19.720Z,47.57
2019-02-05T23:23:48.169Z,45.57
2019-02-05T23:26:16.698Z,45.63
2019-02-05T23:28:45.070Z,45.10
2019-02-05T23:31:13.362Z,47.37
2019-02-05T23:33:44.550Z,46.40
2019-02-05T23:36:11.636Z,46.83
2019-02-05T23:38:42.208Z,47.57
2019-02-05T23:41:09.952Z,50.90
2019-02-05T23:43:38.212Z,47.53
2019-02-05T23:46:06.519Z,46.83
2019-02-05T23:48:34.792Z,47.20
2019-02-05T23:51:03.076Z,47.30
2019-02-05T23:53:31.361Z,47.13
2019-02-05T23:55:59.720Z,43.87
2019-02-05T23:58:28.849Z,43.90
